createdAt,value
2022-08-18T00:00:19.951Z,25.77
2022-08-18T00:03:15.830Z,25.72
2022-08-18T00:06:03.616Z,25.72
2022-08-18T00:08:38.516Z,25.71
2022-08-18T00:11:10.963Z,25.69
2022-08-18T00:13:43.248Z,25.66
2022-08-18T00:16:15.469Z,25.63
2022-08-18T00:18:47.508Z,25.59
2022-08-18T00:21:20.425Z,25.58
2022-08-18T00:23:52.893Z,25.57
2022-08-18T00:26:25.254Z,25.56
2022-08-18T00:28:57.508Z,25.55
2022-08-18T00:31:30.165Z,25.52
2022-08-18T00:34:02.257Z,25.50
2022-08-18T00:36:35.122Z,25.48
2022-08-18T00:39:07.341Z,25.46
2022-08-18T00:41:39.902Z,25.37
2022-08-18T00:44:12.478Z,25.37
2022-08-18T00:46:44.735Z,25.42
2022-08-18T00:49:18.486Z,25.41
2022-08-18T00:51:53.693Z,25.39
2022-08-18T00:54:28.676Z,25.30
2022-08-18T00:57:03.576Z,25.34
2022-08-18T00:59:42.659Z,25.33
2022-08-18T01:02:22.647Z,25.32
2022-08-18T01:05:01.421Z,25.24
2022-08-18T01:07:37.701Z,25.32
2022-08-18T01:10:11.206Z,25.34
2022-08-18T01:12:45.200Z,25.34
2022-08-18T01:15:28.289Z,25.35
2022-08-18T01:18:19.031Z,25.25
2022-08-18T01:21:18.084Z,25.37
2022-08-18T01:23:52.075Z,25.38
2022-08-18T01:26:28.215Z,25.38
2022-08-18T01:29:10.636Z,25.39
2022-08-18T01:31:53.339Z,25.38
2022-08-18T01:34:28.732Z,25.26
2022-08-18T01:37:01.255Z,25.34
2022-08-18T01:41:22.676Z,25.34
2022-08-18T01:42:26.091Z,25.32
2022-08-18T01:44:58.384Z,25.31
2022-08-18T01:47:31.382Z,25.30
2022-08-18T01:50:20.655Z,25.27
2022-08-18T01:52:53.826Z,25.25
2022-08-18T01:55:28.402Z,25.23
2022-08-18T01:58:01.542Z,25.20
2022-08-18T02:00:33.772Z,25.17
2022-08-18T02:03:10.694Z,25.14
2022-08-18T02:05:49.254Z,25.12
2022-08-18T02:08:23.358Z,25.10
2022-08-18T02:11:00.146Z,25.09
2022-08-18T02:13:33.005Z,25.08
2022-08-18T02:16:05.834Z,25.07
2022-08-18T02:18:47.515Z,25.05
2022-08-18T02:21:23.306Z,25.05
2022-08-18T02:23:54.170Z,25.05
2022-08-18T02:26:26.376Z,25.05
2022-08-18T02:28:58.500Z,25.03
2022-08-18T02:31:30.564Z,25.03
2022-08-18T02:34:02.835Z,25.01
2022-08-18T02:36:35.033Z,24.96
2022-08-18T02:39:07.289Z,24.94
2022-08-18T02:41:39.287Z,24.89
2022-08-18T02:44:12.561Z,24.86
2022-08-18T02:46:44.592Z,24.85
2022-08-18T02:49:16.844Z,24.83
2022-08-18T02:51:49.746Z,24.82
2022-08-18T02:54:23.542Z,24.80
2022-08-18T02:56:57.287Z,24.79
2022-08-18T02:59:32.058Z,24.79
2022-08-18T03:02:07.544Z,24.78
2022-08-18T03:04:39.572Z,24.77
2022-08-18T03:07:11.999Z,24.76
2022-08-18T03:09:44.417Z,24.76
2022-08-18T03:12:16.753Z,24.75
2022-08-18T03:14:49.527Z,24.72
2022-08-18T03:17:21.626Z,24.71
2022-08-18T03:19:53.944Z,24.70
2022-08-18T03:22:29.567Z,24.67
2022-08-18T03:25:03.199Z,24.66
2022-08-18T03:27:35.242Z,24.65
2022-08-18T03:30:11.337Z,24.63
2022-08-18T03:32:45.714Z,24.62
2022-08-18T03:35:18.983Z,24.59
2022-08-18T03:37:51.357Z,24.52
2022-08-18T03:40:23.907Z,24.60
2022-08-18T03:42:56.540Z,24.59
2022-08-18T03:45:32.092Z,24.59
2022-08-18T03:48:05.300Z,24.53
2022-08-18T03:50:38.073Z,24.60
2022-08-18T03:53:11.367Z,24.60
2022-08-18T03:55:44.698Z,24.60
2022-08-18T03:58:16.693Z,24.54
2022-08-18T04:00:48.837Z,24.52
2022-08-18T04:03:20.855Z,24.59
2022-08-18T04:05:53.605Z,24.61
2022-08-18T04:08:25.871Z,24.61
2022-08-18T04:10:57.909Z,24.59
2022-08-18T04:13:30.140Z,24.59
2022-08-18T04:16:03.725Z,24.61
2022-08-18T04:18:36.467Z,24.62
2022-08-18T04:21:14.864Z,24.62
2022-08-18T04:23:46.959Z,24.64
2022-08-18T04:26:20.304Z,24.64
2022-08-18T04:28:52.482Z,24.66
2022-08-18T04:31:26.536Z,24.66
2022-08-18T04:34:00.620Z,24.67
2022-08-18T04:36:35.216Z,24.68
2022-08-18T04:39:07.202Z,24.70
2022-08-18T04:41:41.177Z,24.72
2022-08-18T04:44:17.288Z,24.75
2022-08-18T04:46:51.979Z,24.76
2022-08-18T04:49:26.543Z,24.73
2022-08-18T04:52:32.006Z,24.79
2022-08-18T04:55:08.119Z,24.82
2022-08-18T04:57:42.664Z,24.84
2022-08-18T05:00:15.475Z,24.87
2022-08-18T05:02:47.561Z,24.89
2022-08-18T05:05:19.829Z,24.91
2022-08-18T05:07:52.127Z,24.91
2022-08-18T05:10:24.435Z,24.91
2022-08-18T05:12:57.567Z,24.92
2022-08-18T05:15:38.418Z,24.97
2022-08-18T05:18:24.465Z,25.02
2022-08-18T05:21:01.398Z,25.09
2022-08-18T05:23:36.229Z,25.12
2022-08-18T05:26:08.814Z,25.15
2022-08-18T05:28:40.944Z,25.21
2022-08-18T05:31:14.662Z,25.25
2022-08-18T05:33:47.921Z,25.29
2022-08-18T05:36:38.035Z,25.31
2022-08-18T05:39:16.954Z,25.30
2022-08-18T05:41:53.209Z,25.30
2022-08-18T05:44:29.854Z,25.35
2022-08-18T05:47:06.666Z,25.37
2022-08-18T05:49:39.789Z,25.39
2022-08-18T05:53:56.290Z,25.48
2022-08-18T05:56:48.286Z,25.48
2022-08-18T05:59:26.477Z,25.50
2022-08-18T06:02:05.614Z,25.54
2022-08-18T06:04:45.388Z,25.55
2022-08-18T06:07:25.216Z,25.59
2022-08-18T06:09:58.051Z,25.65
2022-08-18T06:12:37.636Z,25.61
2022-08-18T06:15:16.253Z,25.74
2022-08-18T06:18:17.584Z,25.78
2022-08-18T06:21:18.541Z,25.84
2022-08-18T06:23:57.867Z,25.92
2022-08-18T06:26:41.370Z,25.94
2022-08-18T06:29:25.176Z,26.00
2022-08-18T06:32:07.565Z,26.07
2022-08-18T06:34:57.542Z,26.11
2022-08-18T06:37:35.376Z,26.13
2022-08-18T06:40:09.572Z,26.15
2022-08-18T06:42:41.884Z,26.11
2022-08-18T06:45:18.411Z,26.23
2022-08-18T06:47:58.450Z,26.27
2022-08-18T06:50:35.326Z,26.31
2022-08-18T06:53:19.066Z,26.35
2022-08-18T06:55:59.791Z,26.32
2022-08-18T06:58:33.063Z,26.46
2022-08-18T07:01:09.095Z,26.49
2022-08-18T07:03:50.472Z,26.55
2022-08-18T07:06:32.670Z,26.50
2022-08-18T07:09:29.905Z,26.64
2022-08-18T07:12:09.372Z,26.70
2022-08-18T07:14:47.719Z,26.77
2022-08-18T07:17:42.134Z,26.83
2022-08-18T07:20:26.570Z,26.90
2022-08-18T07:23:02.113Z,26.96
2022-08-18T07:25:44.311Z,27.06
2022-08-18T07:28:31.631Z,27.13
2022-08-18T07:31:20.554Z,27.20
2022-08-18T07:33:57.684Z,27.27
2022-08-18T07:36:34.604Z,27.33
2022-08-18T07:39:12.857Z,27.40
2022-08-18T07:41:53.789Z,27.47
2022-08-18T07:44:41.800Z,27.55
2022-08-18T07:47:19.654Z,27.64
2022-08-18T07:50:17.051Z,27.76
2022-08-18T07:53:04.175Z,27.84
2022-08-18T07:55:45.255Z,27.94
2022-08-18T07:58:39.000Z,28.01
2022-08-18T08:01:19.962Z,28.08
2022-08-18T08:04:00.553Z,28.17
2022-08-18T08:06:40.294Z,28.24
2022-08-18T08:09:22.648Z,28.32
2022-08-18T08:12:01.340Z,28.37
2022-08-18T08:14:42.392Z,28.44
2022-08-18T08:17:25.986Z,28.53
2022-08-18T08:20:11.012Z,28.63
2022-08-18T08:22:48.105Z,28.68
2022-08-18T08:28:27.642Z,28.77
2022-08-18T08:31:35.425Z,28.93
2022-08-18T08:34:13.350Z,28.99
2022-08-18T08:36:48.819Z,28.99
2022-08-18T08:39:26.235Z,29.06
2022-08-18T08:42:30.176Z,29.14
2022-08-18T08:45:01.055Z,29.21
2022-08-18T08:47:38.224Z,29.31
2022-08-18T08:50:14.573Z,29.38
2022-08-18T08:52:56.658Z,29.43
2022-08-18T08:55:33.739Z,29.45
2022-08-18T08:58:18.543Z,29.50
2022-08-18T09:00:52.582Z,29.49
2022-08-18T09:03:41.689Z,29.64
2022-08-18T09:06:31.503Z,29.75
2022-08-18T09:09:24.247Z,29.86
2022-08-18T09:12:28.493Z,29.96
2022-08-18T09:15:34.179Z,30.00
2022-08-18T09:18:14.475Z,30.04
2022-08-18T09:21:07.807Z,30.11
2022-08-18T09:23:44.792Z,30.22
2022-08-18T09:26:41.038Z,30.37
2022-08-18T09:29:28.685Z,30.43
2022-08-18T09:32:35.706Z,30.59
2022-08-18T09:38:36.094Z,30.76
2022-08-18T09:41:31.460Z,30.82
2022-08-18T09:44:21.208Z,30.87
2022-08-18T09:47:03.015Z,30.94
2022-08-18T09:59:02.729Z,31.29
2022-08-18T10:01:43.248Z,31.43
2022-08-18T10:04:34.065Z,31.53
2022-08-18T10:10:59.951Z,31.55
2022-08-18T10:13:29.686Z,31.72
2022-08-18T10:16:14.413Z,31.85
2022-08-18T10:19:08.113Z,31.94
2022-08-18T10:22:13.179Z,32.08
2022-08-18T10:24:57.315Z,32.20
2022-08-18T10:27:50.643Z,32.30
2022-08-18T10:30:56.614Z,32.37
2022-08-18T10:34:24.653Z,32.40
2022-08-18T10:36:59.946Z,32.38
2022-08-18T10:39:50.060Z,32.40
2022-08-18T10:42:31.195Z,32.50
2022-08-18T10:45:12.066Z,32.47
2022-08-18T10:47:45.112Z,32.49
2022-08-18T10:50:24.413Z,32.59
2022-08-18T10:56:12.817Z,32.92
2022-08-18T10:58:59.787Z,33.04
2022-08-18T11:01:47.304Z,33.08
2022-08-18T11:04:34.738Z,33.21
2022-08-18T11:07:14.696Z,33.30
2022-08-18T11:13:08.749Z,33.31
2022-08-18T11:15:57.326Z,33.30
2022-08-18T11:21:42.686Z,33.16
2022-08-18T11:24:21.194Z,33.12
2022-08-18T11:26:56.201Z,33.11
2022-08-18T11:29:32.786Z,33.12
2022-08-18T11:32:11.211Z,33.38
2022-08-18T11:34:53.061Z,33.64
2022-08-18T11:37:48.951Z,33.77
2022-08-18T11:43:39.153Z,34.01
2022-08-18T11:46:27.885Z,34.03
2022-08-18T11:49:15.548Z,34.08
2022-08-18T11:52:03.156Z,34.12
2022-08-18T11:57:46.756Z,34.31
2022-08-18T12:00:54.887Z,34.31
2022-08-18T12:03:37.936Z,34.42
2022-08-18T12:06:26.856Z,34.48
2022-08-18T12:09:04.022Z,34.49
2022-08-18T12:11:41.173Z,34.57
2022-08-18T12:14:30.252Z,34.65
2022-08-18T12:17:10.559Z,34.72
2022-08-18T12:19:43.078Z,34.80
2022-08-18T12:22:20.395Z,34.81
2022-08-18T12:24:54.796Z,34.87
2022-08-18T12:27:32.085Z,34.95
2022-08-18T12:30:07.049Z,35.07
2022-08-18T12:32:55.513Z,35.16
2022-08-18T12:35:28.917Z,35.19
2022-08-18T12:38:11.326Z,35.26
2022-08-18T12:40:46.485Z,35.25
2022-08-18T12:43:18.611Z,34.93
2022-08-18T12:45:52.793Z,34.73
2022-08-18T12:48:26.777Z,34.83
2022-08-18T12:51:00.888Z,34.85
2022-08-18T12:53:58.517Z,34.91
2022-08-18T12:56:32.319Z,34.91
2022-08-18T12:59:07.529Z,34.94
2022-08-18T13:01:41.378Z,34.98
2022-08-18T13:04:18.672Z,35.02
2022-08-18T13:07:00.527Z,35.00
2022-08-18T13:09:52.613Z,35.05
2022-08-18T13:12:27.487Z,35.12
2022-08-18T13:14:59.818Z,35.20
2022-08-18T13:17:33.768Z,35.17
2022-08-18T13:20:10.655Z,35.06
2022-08-18T13:22:45.919Z,34.97
2022-08-18T13:25:33.203Z,35.08
2022-08-18T13:28:12.189Z,35.11
2022-08-18T13:30:46.800Z,35.06
2022-08-18T13:33:34.716Z,34.93
2022-08-18T13:36:12.132Z,35.13
2022-08-18T13:38:44.473Z,35.02
2022-08-18T13:41:17.101Z,34.80
2022-08-18T13:43:50.605Z,34.51
2022-08-18T13:46:31.252Z,34.28
2022-08-18T13:49:05.325Z,34.25
2022-08-18T13:51:38.573Z,33.96
2022-08-18T13:54:30.827Z,34.08
2022-08-18T13:57:05.415Z,33.90
2022-08-18T13:59:46.659Z,33.72
2022-08-18T14:02:19.423Z,33.50
2022-08-18T14:04:59.224Z,33.56
2022-08-18T14:07:32.049Z,33.72
2022-08-18T14:10:10.681Z,33.81
2022-08-18T14:12:46.048Z,33.99
2022-08-18T14:15:19.186Z,34.10
2022-08-18T14:17:57.221Z,34.27
2022-08-18T14:20:59.017Z,34.51
2022-08-18T14:24:00.844Z,34.64
2022-08-18T14:26:51.297Z,34.44
2022-08-18T14:29:43.016Z,34.40
2022-08-18T14:32:18.067Z,34.48
2022-08-18T14:34:59.994Z,34.48
2022-08-18T14:37:34.007Z,34.55
2022-08-18T14:40:14.082Z,34.26
2022-08-18T14:43:02.492Z,34.20
2022-08-18T14:45:49.163Z,34.12
2022-08-18T14:48:23.329Z,34.15
2022-08-18T14:50:55.556Z,33.89
2022-08-18T14:53:30.173Z,33.78
2022-08-18T14:56:03.038Z,33.48
2022-08-18T14:58:35.962Z,33.37
2022-08-18T15:01:13.367Z,33.23
2022-08-18T15:03:49.086Z,33.12
2022-08-18T15:06:23.021Z,32.97
2022-08-18T15:08:59.363Z,32.84
2022-08-18T15:11:33.676Z,32.74
2022-08-18T15:14:06.353Z,32.62
2022-08-18T15:16:39.902Z,32.57
2022-08-18T15:20:00.496Z,32.57
2022-08-18T15:22:22.969Z,32.43
2022-08-18T15:25:12.603Z,32.41
2022-08-18T15:27:44.968Z,32.38
2022-08-18T15:30:19.516Z,32.31
2022-08-18T15:32:59.658Z,32.22
2022-08-18T15:35:35.722Z,32.21
2022-08-18T15:38:12.624Z,32.16
2022-08-18T15:40:52.962Z,32.10
2022-08-18T15:43:35.503Z,32.07
2022-08-18T15:46:22.657Z,32.04
2022-08-18T15:48:59.777Z,32.02
2022-08-18T15:51:40.963Z,32.03
2022-08-18T15:54:14.512Z,32.04
2022-08-18T15:56:58.458Z,32.07
2022-08-18T15:59:34.022Z,32.06
2022-08-18T16:02:19.280Z,32.06
2022-08-18T16:04:53.374Z,32.07
2022-08-18T16:07:40.963Z,32.07
2022-08-18T16:10:20.428Z,32.09
2022-08-18T16:12:53.117Z,32.06
2022-08-18T16:15:26.863Z,32.07
2022-08-18T16:17:59.188Z,32.07
2022-08-18T16:20:31.310Z,32.03
2022-08-18T16:23:03.694Z,32.05
2022-08-18T16:25:38.427Z,32.03
2022-08-18T16:28:09.355Z,32.03
2022-08-18T16:30:42.114Z,32.04
2022-08-18T16:33:14.114Z,32.03
2022-08-18T16:35:47.804Z,32.00
2022-08-18T16:38:21.520Z,32.01
2022-08-18T16:40:53.611Z,31.90
2022-08-18T16:43:27.268Z,31.92
2022-08-18T16:45:59.787Z,31.82
2022-08-18T16:48:33.006Z,31.85
2022-08-18T16:51:05.976Z,31.87
2022-08-18T16:53:40.051Z,31.81
2022-08-18T16:56:18.674Z,31.77
2022-08-18T16:59:08.930Z,31.70
2022-08-18T17:01:59.053Z,31.68
2022-08-18T17:04:34.593Z,31.65
2022-08-18T17:07:08.173Z,31.65
2022-08-18T17:09:40.452Z,31.59
2022-08-18T17:12:12.979Z,31.54
2022-08-18T17:14:45.027Z,31.48
2022-08-18T17:17:18.815Z,31.39
2022-08-18T17:19:52.026Z,31.30
2022-08-18T17:22:24.937Z,31.24
2022-08-18T17:25:02.957Z,31.19
2022-08-18T17:27:37.744Z,31.15
2022-08-18T17:30:16.007Z,31.09
2022-08-18T17:32:52.754Z,31.04
2022-08-18T17:35:29.469Z,30.97
2022-08-18T17:38:06.932Z,30.90
2022-08-18T17:40:45.050Z,30.90
2022-08-18T17:43:19.411Z,30.83
2022-08-18T17:45:57.228Z,30.78
2022-08-18T17:48:33.639Z,30.74
2022-08-18T17:51:44.811Z,30.73
2022-08-18T17:54:37.104Z,30.65
2022-08-18T17:57:14.627Z,30.58
2022-08-18T17:59:58.383Z,30.50
2022-08-18T18:02:35.125Z,30.47
2022-08-18T18:05:11.180Z,30.41
2022-08-18T18:07:58.700Z,30.34
2022-08-18T18:11:02.251Z,30.29
2022-08-18T18:13:35.658Z,30.21
2022-08-18T18:16:29.124Z,30.16
2022-08-18T18:19:06.087Z,30.09
2022-08-18T18:21:57.592Z,30.02
2022-08-18T18:24:34.908Z,29.96
2022-08-18T18:27:27.139Z,29.89
2022-08-18T18:30:03.173Z,29.82
2022-08-18T18:32:38.958Z,29.77
2022-08-18T18:35:18.026Z,29.73
2022-08-18T18:37:54.916Z,29.68
2022-08-18T18:40:31.744Z,29.61
2022-08-18T18:43:23.244Z,29.54
2022-08-18T18:46:23.598Z,29.43
2022-08-18T18:49:14.683Z,29.38
2022-08-18T18:51:57.860Z,29.36
2022-08-18T18:54:49.920Z,29.32
2022-08-18T18:57:32.114Z,29.33
2022-08-18T19:00:18.319Z,29.31
2022-08-18T19:03:03.974Z,29.29
2022-08-18T19:05:39.915Z,29.27
2022-08-18T19:08:26.526Z,29.26
2022-08-18T19:11:03.296Z,29.17
2022-08-18T19:13:42.379Z,29.06
2022-08-18T19:16:24.309Z,28.97
2022-08-18T19:19:35.607Z,28.92
2022-08-18T19:22:06.434Z,28.88
2022-08-18T19:24:46.057Z,28.76
2022-08-18T19:27:26.897Z,28.81
2022-08-18T19:30:08.880Z,28.79
2022-08-18T19:32:45.009Z,28.75
2022-08-18T19:35:20.880Z,28.72
2022-08-18T19:38:04.809Z,28.71
2022-08-18T19:40:46.955Z,28.69
2022-08-18T19:43:27.697Z,28.65
2022-08-18T19:46:10.575Z,28.70
2022-08-18T19:48:52.905Z,28.72
2022-08-18T19:51:34.332Z,28.75
2022-08-18T19:54:34.803Z,28.79
2022-08-18T19:57:23.535Z,28.78
2022-08-18T20:00:25.839Z,28.79
2022-08-18T20:03:45.931Z,28.78
2022-08-18T20:06:45.131Z,28.79
2022-08-18T20:09:29.416Z,28.77
2022-08-18T20:15:17.182Z,28.79
2022-08-18T20:18:22.319Z,28.74
2022-08-18T20:21:39.855Z,28.72
2022-08-18T20:24:32.752Z,28.70
2022-08-18T20:27:35.311Z,28.69
2022-08-18T20:30:28.510Z,28.66
2022-08-18T20:33:19.126Z,28.62
2022-08-18T20:36:10.757Z,28.61
2022-08-18T20:38:45.716Z,28.60
2022-08-18T20:41:52.017Z,28.56
2022-08-18T20:44:50.751Z,28.51
2022-08-18T20:47:42.994Z,28.47
2022-08-18T20:50:44.643Z,28.43
2022-08-18T20:53:49.935Z,28.38
2022-08-18T20:56:32.584Z,28.36
2022-08-18T20:59:23.740Z,28.29
2022-08-18T21:02:05.018Z,28.28
2022-08-18T21:04:45.731Z,28.29
2022-08-18T21:07:37.194Z,28.26
2022-08-18T21:10:19.453Z,28.28
2022-08-18T21:12:54.951Z,28.19
2022-08-18T21:15:31.404Z,28.11
2022-08-18T21:18:06.145Z,28.07
2022-08-18T21:20:38.313Z,28.08
2022-08-18T21:23:12.658Z,28.08
2022-08-18T21:25:56.950Z,28.01
2022-08-18T21:28:34.990Z,28.00
2022-08-18T21:31:41.677Z,27.97
2022-08-18T21:34:05.826Z,27.94
2022-08-18T21:36:40.295Z,27.95
2022-08-18T21:39:18.267Z,27.92
2022-08-18T21:41:53.285Z,27.90
2022-08-18T21:44:41.748Z,27.87
2022-08-18T21:47:26.018Z,27.83
2022-08-18T21:50:10.757Z,27.80
2022-08-18T21:52:53.205Z,27.81
2022-08-18T21:55:31.856Z,27.79
2022-08-18T21:58:09.100Z,27.76
2022-08-18T22:00:43.984Z,27.65
2022-08-18T22:03:18.638Z,27.73
2022-08-18T22:06:00.052Z,27.71
2022-08-18T22:08:46.556Z,27.68
2022-08-18T22:12:00.988Z,27.63
2022-08-18T22:14:54.994Z,27.60
2022-08-18T22:17:35.085Z,27.56
2022-08-18T22:20:35.334Z,27.54
2022-08-18T22:23:35.802Z,27.52
2022-08-18T22:26:15.189Z,27.49
2022-08-18T22:28:55.291Z,27.50
2022-08-18T22:31:29.829Z,27.49
2022-08-18T22:34:07.392Z,27.46
2022-08-18T22:36:42.707Z,27.43
2022-08-18T22:39:19.869Z,27.39
2022-08-18T22:41:55.054Z,27.36
2022-08-18T22:44:27.539Z,27.36
2022-08-18T22:47:00.342Z,27.36
2022-08-18T22:49:35.971Z,27.33
2022-08-18T22:52:14.059Z,27.29
2022-08-18T22:54:46.271Z,27.27
2022-08-18T22:57:23.616Z,27.23
2022-08-18T22:59:56.340Z,27.15
2022-08-18T23:02:30.616Z,27.19
2022-08-18T23:05:03.455Z,27.15
2022-08-18T23:07:35.800Z,27.13
2022-08-18T23:10:13.531Z,27.09
2022-08-18T23:12:47.590Z,27.07
2022-08-18T23:15:20.640Z,27.05
2022-08-18T23:17:52.857Z,27.05
2022-08-18T23:20:26.655Z,27.02
2022-08-18T23:22:59.007Z,26.99
2022-08-18T23:25:32.631Z,26.95
2022-08-18T23:28:09.627Z,26.95
2022-08-18T23:30:44.644Z,26.85
2022-08-18T23:33:17.644Z,26.91
2022-08-18T23:35:50.537Z,26.88
2022-08-18T23:38:23.025Z,26.84
2022-08-18T23:41:05.873Z,26.76
2022-08-18T23:43:38.423Z,26.82
2022-08-18T23:46:18.644Z,26.77
2022-08-18T23:48:51.709Z,26.78
2022-08-18T23:51:29.958Z,26.75
2022-08-18T23:54:03.992Z,26.76
2022-08-18T23:56:37.847Z,26.76
2022-08-18T23:59:11.384Z,26.77
